Shoreway — 5BLH2 — position and weather

sailwx.info

Track history (hours):
 
Tides and Currents Weather Stations Pressure Air Temp Water Temp Dewpoint Dewpoint Depression Visibility Wind Speed Wind Dir Waves Ship Positions

Shoreway

Last reported at 2018-Jun-04 00:48 UTC. Time now 2018-Jun-21 08:35 UTC.
Position N 21°06' W 091°24'.
Warning: this ship's position is 17 days out of date.

Length 98 m; draft 4.4 m.

Type: Dredging. MMSI: 210921000.

Date/timePositionNaut miles runAvg speedWind from/ knotsBaromVisibWave heightAir tempDewpointWater temp
2018-Jun-04 00:48N 21°06' W 091°24'511.8
2018-Jun-04 00:24N 21°09' W 091°20'511.8
2018-Jun-03 23:59N 21°11' W 091°16'611.8
2018-Jun-03 23:30N 21°14' W 091°10'611.8
2018-Jun-03 23:00N 21°17' W 091°05'611.8
2018-Jun-03 22:30N 21°20' W 090°60'611.9
2018-Jun-03 22:00N 21°23' W 090°54'612.1
2018-Jun-03 21:30N 21°26' W 090°49'612.1
2018-Jun-03 21:00N 21°30' W 090°43'612.1
2018-Jun-03 20:30N 21°33' W 090°38'612.0
2018-Jun-03 20:00N 21°36' W 090°32'612.1
2018-Jun-03 19:30N 21°39' W 090°27'612.0
2018-Jun-03 19:00N 21°42' W 090°21'611.9
2018-Jun-03 18:30N 21°45' W 090°15'612.0
2018-Jun-03 18:00N 21°48' W 090°10'611.9
2018-Jun-03 17:30N 21°51' W 090°05'6812.0
2018-Jun-03 11:52N 22°01' W 088°52'512.4
2018-Jun-03 11:30N 22°01' W 088°47'712.1
2018-Jun-03 10:57N 22°01' W 088°40'612.2
2018-Jun-03 10:29N 22°01' W 088°34'912.3
2018-Jun-03 09:45N 22°01' W 088°24'  
Track history (hours):
 
Tides and Currents Weather Stations Pressure Air Temp Water Temp Dewpoint Dewpoint Depression Visibility Wind Speed Wind Dir Waves Ship Positions

Shoreway

Last reported at 2018-Jun-04 00:48 UTC. Time now 2018-Jun-21 08:35 UTC.
Position N 21°06' W 091°24'.
Warning: this ship's position is 17 days out of date.

Length 98 m; draft 4.4 m.

Type: Dredging. MMSI: 210921000.

Date/timePositionNaut miles runAvg speedWind from/ knotsBaromVisibWave heightAir tempDewpointWater temp
2018-Jun-04 00:48N 21°06' W 091°24'511.8
2018-Jun-04 00:24N 21°09' W 091°20'511.8
2018-Jun-03 23:59N 21°11' W 091°16'611.8
2018-Jun-03 23:30N 21°14' W 091°10'611.8
2018-Jun-03 23:00N 21°17' W 091°05'611.8
2018-Jun-03 22:30N 21°20' W 090°60'611.9
2018-Jun-03 22:00N 21°23' W 090°54'612.1
2018-Jun-03 21:30N 21°26' W 090°49'612.1
2018-Jun-03 21:00N 21°30' W 090°43'612.1
2018-Jun-03 20:30N 21°33' W 090°38'612.0
2018-Jun-03 20:00N 21°36' W 090°32'612.1
2018-Jun-03 19:30N 21°39' W 090°27'612.0
2018-Jun-03 19:00N 21°42' W 090°21'611.9
2018-Jun-03 18:30N 21°45' W 090°15'612.0
2018-Jun-03 18:00N 21°48' W 090°10'611.9
2018-Jun-03 17:30N 21°51' W 090°05'6812.0
2018-Jun-03 11:52N 22°01' W 088°52'512.4
2018-Jun-03 11:30N 22°01' W 088°47'712.1
2018-Jun-03 10:57N 22°01' W 088°40'612.2
2018-Jun-03 10:29N 22°01' W 088°34'912.3
2018-Jun-03 09:45N 22°01' W 088°24'  

Dump ship's entire track history